Nobel, Canada
Current Conditions -  °F | °C
As of 9:00 PM on Tuesday 21 Oct 2014 (Local Time) from CYQA Reporting Station
Overcast Overcast  
Wind Chill: 35°   Ceiling: 2800
Heat Index: 39°   Visibility: 9mi
Dew Point: 36°   Wind: 6mph
Humidity: 87%   Direction: 360°N
Pressure: 30.17"   Gusts: NA
Location:  45.41°N, 80.09°W
Report Text: CYQA 220100Z AUTO 36005KT 310V030 9SM BKN028 OVC055 04/02 A3017 RMK SLP227
Loading
Personal Weather Stations






























Interactive Weather Map New forecast layout! Learn more

10-Day Weather Forecast

Advertisements
Track Severe Weather on mobile